sensor_id;sensor_type;location;lat;lon;timestamp;P1;durP1;ratioP1;P2;durP2;ratioP2
78426;SDS011;67722;50.204;8.570;2023-05-07T00:00:34;1.02;;;0.63;;
78426;SDS011;67722;50.204;8.570;2023-05-07T00:03:00;1.25;;;0.63;;
78426;SDS011;67722;50.204;8.570;2023-05-07T00:05:26;1.63;;;0.73;;
78426;SDS011;67722;50.204;8.570;2023-05-07T00:07:51;2.03;;;0.55;;
78426;SDS011;67722;50.204;8.570;2023-05-07T00:10:17;2.45;;;0.77;;
78426;SDS011;67722;50.204;8.570;2023-05-07T00:12:43;1.20;;;0.50;;
78426;SDS011;67722;50.204;8.570;2023-05-07T00:15:08;1.70;;;0.83;;
78426;SDS011;67722;50.204;8.570;2023-05-07T00:17:34;3.03;;;0.50;;
78426;SDS011;67722;50.204;8.570;2023-05-07T00:19:59;1.10;;;0.90;;
78426;SDS011;67722;50.204;8.570;2023-05-07T00:22:24;2.22;;;0.65;;
78426;SDS011;67722;50.204;8.570;2023-05-07T00:24:50;1.73;;;0.50;;
78426;SDS011;67722;50.204;8.570;2023-05-07T00:27:15;1.57;;;0.70;;
78426;SDS011;67722;50.204;8.570;2023-05-07T00:29:41;1.23;;;0.60;;
78426;SDS011;67722;50.204;8.570;2023-05-07T00:32:06;2.25;;;0.73;;
78426;SDS011;67722;50.204;8.570;2023-05-07T00:34:31;1.47;;;0.67;;
78426;SDS011;67722;50.204;8.570;2023-05-07T00:36:57;2.10;;;0.83;;
78426;SDS011;67722;50.204;8.570;2023-05-07T00:39:22;0.83;;;0.47;;
78426;SDS011;67722;50.204;8.570;2023-05-07T00:41:47;1.23;;;0.63;;
78426;SDS011;67722;50.204;8.570;2023-05-07T00:44:13;4.10;;;0.77;;
78426;SDS011;67722;50.204;8.570;2023-05-07T00:46:39;3.05;;;0.82;;
78426;SDS011;67722;50.204;8.570;2023-05-07T00:49:04;1.15;;;0.50;;
78426;SDS011;67722;50.204;8.570;2023-05-07T00:51:30;1.60;;;0.82;;
78426;SDS011;67722;50.204;8.570;2023-05-07T00:53:55;1.85;;;0.80;;
78426;SDS011;67722;50.204;8.570;2023-05-07T00:56:21;1.95;;;0.60;;
78426;SDS011;67722;50.204;8.570;2023-05-07T00:58:47;4.47;;;0.90;;
78426;SDS011;67722;50.204;8.570;2023-05-07T01:01:12;2.22;;;0.65;;
78426;SDS011;67722;50.204;8.570;2023-05-07T01:03:38;1.37;;;0.60;;
78426;SDS011;67722;50.204;8.570;2023-05-07T01:06:03;1.40;;;0.70;;
78426;SDS011;67722;50.204;8.570;2023-05-07T01:08:29;1.90;;;0.75;;
78426;SDS011;67722;50.204;8.570;2023-05-07T01:10:56;1.65;;;0.80;;
78426;SDS011;67722;50.204;8.570;2023-05-07T01:13:22;1.38;;;0.80;;
78426;SDS011;67722;50.204;8.570;2023-05-07T01:15:47;2.17;;;1.00;;
78426;SDS011;67722;50.204;8.570;2023-05-07T01:18:13;1.75;;;1.00;;
78426;SDS011;67722;50.204;8.570;2023-05-07T01:20:38;1.40;;;0.88;;
78426;SDS011;67722;50.204;8.570;2023-05-07T01:23:03;1.47;;;0.60;;
78426;SDS011;67722;50.204;8.570;2023-05-07T01:25:30;1.30;;;0.75;;
78426;SDS011;67722;50.204;8.570;2023-05-07T01:27:56;1.88;;;0.90;;
78426;SDS011;67722;50.204;8.570;2023-05-07T01:30:21;1.67;;;1.00;;
78426;SDS011;67722;50.204;8.570;2023-05-07T01:32:51;1.85;;;1.15;;
78426;SDS011;67722;50.204;8.570;2023-05-07T01:35:19;1.60;;;0.95;;
78426;SDS011;67722;50.204;8.570;2023-05-07T01:37:46;3.03;;;0.70;;
78426;SDS011;67722;50.204;8.570;2023-05-07T01:40:11;1.35;;;0.70;;
78426;SDS011;67722;50.204;8.570;2023-05-07T01:42:37;3.67;;;0.90;;
78426;SDS011;67722;50.204;8.570;2023-05-07T01:45:02;3.90;;;0.90;;
78426;SDS011;67722;50.204;8.570;2023-05-07T01:47:29;2.28;;;0.65;;
78426;SDS011;67722;50.204;8.570;2023-05-07T01:49:55;1.77;;;0.65;;
78426;SDS011;67722;50.204;8.570;2023-05-07T01:52:20;1.52;;;0.77;;
78426;SDS011;67722;50.204;8.570;2023-05-07T01:54:45;1.20;;;0.80;;
78426;SDS011;67722;50.204;8.570;2023-05-07T01:57:11;1.67;;;0.90;;
78426;SDS011;67722;50.204;8.570;2023-05-07T01:59:36;1.20;;;0.70;;
78426;SDS011;67722;50.204;8.570;2023-05-07T02:02:01;1.60;;;0.83;;
78426;SDS011;67722;50.204;8.570;2023-05-07T02:04:27;1.10;;;0.70;;
78426;SDS011;67722;50.204;8.570;2023-05-07T02:06:52;2.25;;;1.00;;
78426;SDS011;67722;50.204;8.570;2023-05-07T02:09:17;2.78;;;0.60;;
78426;SDS011;67722;50.204;8.570;2023-05-07T02:11:43;1.73;;;1.00;;
78426;SDS011;67722;50.204;8.570;2023-05-07T02:14:09;2.50;;;1.20;;
78426;SDS011;67722;50.204;8.570;2023-05-07T02:16:35;2.55;;;1.05;;
78426;SDS011;67722;50.204;8.570;2023-05-07T02:19:00;1.57;;;0.93;;
78426;SDS011;67722;50.204;8.570;2023-05-07T02:21:25;2.67;;;0.90;;
78426;SDS011;67722;50.204;8.570;2023-05-07T02:23:50;1.37;;;0.90;;
78426;SDS011;67722;50.204;8.570;2023-05-07T02:26:16;1.23;;;0.93;;
78426;SDS011;67722;50.204;8.570;2023-05-07T02:28:41;4.85;;;1.55;;
78426;SDS011;67722;50.204;8.570;2023-05-07T02:31:06;2.17;;;0.80;;
78426;SDS011;67722;50.204;8.570;2023-05-07T02:33:32;2.23;;;1.00;;
78426;SDS011;67722;50.204;8.570;2023-05-07T02:36:05;2.30;;;1.02;;
78426;SDS011;67722;50.204;8.570;2023-05-07T02:38:33;2.58;;;0.80;;
78426;SDS011;67722;50.204;8.570;2023-05-07T02:40:59;2.13;;;0.70;;
78426;SDS011;67722;50.204;8.570;2023-05-07T02:43:24;2.13;;;0.95;;
78426;SDS011;67722;50.204;8.570;2023-05-07T02:45:59;3.35;;;0.75;;
78426;SDS011;67722;50.204;8.570;2023-05-07T02:48:34;1.77;;;0.85;;
78426;SDS011;67722;50.204;8.570;2023-05-07T02:50:59;2.42;;;0.98;;
78426;SDS011;67722;50.204;8.570;2023-05-07T02:53:25;1.73;;;0.82;;
78426;SDS011;67722;50.204;8.570;2023-05-07T02:55:55;1.50;;;1.02;;
78426;SDS011;67722;50.204;8.570;2023-05-07T02:58:21;1.40;;;0.52;;
78426;SDS011;67722;50.204;8.570;2023-05-07T03:00:47;4.93;;;1.02;;
78426;SDS011;67722;50.204;8.570;2023-05-07T03:03:12;1.40;;;0.80;;
78426;SDS011;67722;50.204;8.570;2023-05-07T03:05:37;2.47;;;1.10;;
78426;SDS011;67722;50.204;8.570;2023-05-07T03:08:03;2.00;;;0.83;;
78426;SDS011;67722;50.204;8.570;2023-05-07T03:10:29;1.77;;;0.95;;
78426;SDS011;67722;50.204;8.570;2023-05-07T03:12:54;3.65;;;0.88;;
78426;SDS011;67722;50.204;8.570;2023-05-07T03:15:20;1.88;;;0.85;;
78426;SDS011;67722;50.204;8.570;2023-05-07T03:17:46;2.47;;;0.73;;
78426;SDS011;67722;50.204;8.570;2023-05-07T03:20:12;2.13;;;0.80;;
78426;SDS011;67722;50.204;8.570;2023-05-07T03:22:37;2.08;;;0.88;;
78426;SDS011;67722;50.204;8.570;2023-05-07T03:25:03;1.70;;;0.88;;
78426;SDS011;67722;50.204;8.570;2023-05-07T03:27:29;1.65;;;0.80;;
78426;SDS011;67722;50.204;8.570;2023-05-07T03:29:54;1.80;;;1.08;;
78426;SDS011;67722;50.204;8.570;2023-05-07T03:32:20;2.13;;;1.03;;
78426;SDS011;67722;50.204;8.570;2023-05-07T03:34:45;2.05;;;1.05;;
78426;SDS011;67722;50.204;8.570;2023-05-07T03:37:11;2.35;;;1.20;;
78426;SDS011;67722;50.204;8.570;2023-05-07T03:39:36;3.30;;;1.10;;
78426;SDS011;67722;50.204;8.570;2023-05-07T03:42:01;1.70;;;0.80;;
78426;SDS011;67722;50.204;8.570;2023-05-07T03:44:27;1.95;;;0.93;;
78426;SDS011;67722;50.204;8.570;2023-05-07T03:46:52;1.50;;;0.75;;
78426;SDS011;67722;50.204;8.570;2023-05-07T03:49:18;3.90;;;0.80;;
78426;SDS011;67722;50.204;8.570;2023-05-07T03:51:43;1.63;;;0.90;;
78426;SDS011;67722;50.204;8.570;2023-05-07T03:54:08;4.47;;;1.00;;
78426;SDS011;67722;50.204;8.570;2023-05-07T03:56:34;2.53;;;0.95;;
78426;SDS011;67722;50.204;8.570;2023-05-07T03:58:59;2.55;;;1.20;;
78426;SDS011;67722;50.204;8.570;2023-05-07T04:01:25;2.42;;;1.42;;
78426;SDS011;67722;50.204;8.570;2023-05-07T04:03:50;2.53;;;1.50;;
78426;SDS011;67722;50.204;8.570;2023-05-07T04:06:16;2.03;;;1.00;;
78426;SDS011;67722;50.204;8.570;2023-05-07T04:08:42;2.03;;;0.95;;
78426;SDS011;67722;50.204;8.570;2023-05-07T04:11:07;1.45;;;0.93;;
78426;SDS011;67722;50.204;8.570;2023-05-07T04:13:33;1.45;;;0.75;;
78426;SDS011;67722;50.204;8.570;2023-05-07T04:15:58;2.45;;;1.17;;
78426;SDS011;67722;50.204;8.570;2023-05-07T04:18:23;2.37;;;1.00;;
78426;SDS011;67722;50.204;8.570;2023-05-07T04:20:49;2.92;;;1.02;;
78426;SDS011;67722;50.204;8.570;2023-05-07T04:23:14;3.03;;;1.00;;
78426;SDS011;67722;50.204;8.570;2023-05-07T04:25:40;2.15;;;1.10;;
78426;SDS011;67722;50.204;8.570;2023-05-07T04:28:06;1.60;;;0.93;;
78426;SDS011;67722;50.204;8.570;2023-05-07T04:30:31;2.03;;;1.17;;
78426;SDS011;67722;50.204;8.570;2023-05-07T04:32:57;3.20;;;1.10;;
78426;SDS011;67722;50.204;8.570;2023-05-07T04:35:22;3.07;;;1.30;;
78426;SDS011;67722;50.204;8.570;2023-05-07T04:37:47;2.47;;;1.00;;
78426;SDS011;67722;50.204;8.570;2023-05-07T04:40:13;2.30;;;1.20;;
78426;SDS011;67722;50.204;8.570;2023-05-07T04:42:38;1.88;;;1.05;;
78426;SDS011;67722;50.204;8.570;2023-05-07T04:45:04;2.58;;;1.25;;
78426;SDS011;67722;50.204;8.570;2023-05-07T04:47:30;1.60;;;1.00;;
78426;SDS011;67722;50.204;8.570;2023-05-07T04:49:55;4.40;;;1.20;;
78426;SDS011;67722;50.204;8.570;2023-05-07T04:52:22;2.22;;;1.40;;
78426;SDS011;67722;50.204;8.570;2023-05-07T04:54:47;2.00;;;1.10;;
78426;SDS011;67722;50.204;8.570;2023-05-07T04:57:12;2.37;;;1.13;;
78426;SDS011;67722;50.204;8.570;2023-05-07T04:59:38;3.03;;;1.23;;
78426;SDS011;67722;50.204;8.570;2023-05-07T05:02:03;2.92;;;1.00;;
78426;SDS011;67722;50.204;8.570;2023-05-07T05:04:31;2.47;;;1.00;;
78426;SDS011;67722;50.204;8.570;2023-05-07T05:06:57;2.33;;;1.27;;
78426;SDS011;67722;50.204;8.570;2023-05-07T05:09:23;1.52;;;0.95;;
78426;SDS011;67722;50.204;8.570;2023-05-07T05:11:48;3.17;;;0.90;;
78426;SDS011;67722;50.204;8.570;2023-05-07T05:14:13;2.57;;;1.40;;
78426;SDS011;67722;50.204;8.570;2023-05-07T05:16:39;1.73;;;1.25;;
78426;SDS011;67722;50.204;8.570;2023-05-07T05:19:04;1.98;;;1.10;;
78426;SDS011;67722;50.204;8.570;2023-05-07T05:21:30;1.20;;;0.98;;
78426;SDS011;67722;50.204;8.570;2023-05-07T05:23:56;1.85;;;1.23;;
78426;SDS011;67722;50.204;8.570;2023-05-07T05:26:21;2.63;;;1.10;;
78426;SDS011;67722;50.204;8.570;2023-05-07T05:28:47;1.85;;;1.08;;
78426;SDS011;67722;50.204;8.570;2023-05-07T05:31:12;1.38;;;1.10;;
78426;SDS011;67722;50.204;8.570;2023-05-07T05:33:38;1.83;;;1.33;;
78426;SDS011;67722;50.204;8.570;2023-05-07T05:36:03;3.43;;;1.23;;
78426;SDS011;67722;50.204;8.570;2023-05-07T05:38:29;2.17;;;1.30;;
78426;SDS011;67722;50.204;8.570;2023-05-07T05:40:54;2.45;;;1.35;;
78426;SDS011;67722;50.204;8.570;2023-05-07T05:43:20;1.60;;;1.00;;
78426;SDS011;67722;50.204;8.570;2023-05-07T05:45:45;1.50;;;1.00;;
78426;SDS011;67722;50.204;8.570;2023-05-07T05:48:11;3.35;;;1.13;;
78426;SDS011;67722;50.204;8.570;2023-05-07T05:50:36;1.77;;;1.08;;
78426;SDS011;67722;50.204;8.570;2023-05-07T05:53:01;1.50;;;1.02;;
78426;SDS011;67722;50.204;8.570;2023-05-07T05:55:27;1.67;;;1.00;;
78426;SDS011;67722;50.204;8.570;2023-05-07T05:57:52;3.83;;;1.05;;
78426;SDS011;67722;50.204;8.570;2023-05-07T06:00:17;1.83;;;0.95;;
78426;SDS011;67722;50.204;8.570;2023-05-07T06:02:43;2.40;;;1.15;;
78426;SDS011;67722;50.204;8.570;2023-05-07T06:05:09;3.45;;;1.70;;
78426;SDS011;67722;50.204;8.570;2023-05-07T06:07:34;2.83;;;1.73;;
78426;SDS011;67722;50.204;8.570;2023-05-07T06:10:00;3.08;;;1.20;;
78426;SDS011;67722;50.204;8.570;2023-05-07T06:12:26;2.15;;;1.40;;
78426;SDS011;67722;50.204;8.570;2023-05-07T06:14:51;1.50;;;0.98;;
78426;SDS011;67722;50.204;8.570;2023-05-07T06:17:17;2.47;;;1.25;;
78426;SDS011;67722;50.204;8.570;2023-05-07T06:19:42;1.75;;;1.08;;
78426;SDS011;67722;50.204;8.570;2023-05-07T06:22:07;1.27;;;1.00;;
78426;SDS011;67722;50.204;8.570;2023-05-07T06:24:33;2.00;;;1.30;;
78426;SDS011;67722;50.204;8.570;2023-05-07T06:26:58;2.57;;;1.20;;
78426;SDS011;67722;50.204;8.570;2023-05-07T06:29:24;3.28;;;1.33;;
78426;SDS011;67722;50.204;8.570;2023-05-07T06:31:50;2.35;;;1.48;;
78426;SDS011;67722;50.204;8.570;2023-05-07T06:34:19;4.68;;;1.50;;
78426;SDS011;67722;50.204;8.570;2023-05-07T06:36:44;2.75;;;1.50;;
78426;SDS011;67722;50.204;8.570;2023-05-07T06:39:10;2.03;;;1.20;;
78426;SDS011;67722;50.204;8.570;2023-05-07T06:41:35;1.63;;;1.15;;
78426;SDS011;67722;50.204;8.570;2023-05-07T06:44:01;3.08;;;1.33;;
78426;SDS011;67722;50.204;8.570;2023-05-07T06:46:27;3.90;;;1.65;;
78426;SDS011;67722;50.204;8.570;2023-05-07T06:48:53;1.60;;;1.20;;
78426;SDS011;67722;50.204;8.570;2023-05-07T06:51:19;1.75;;;1.27;;
78426;SDS011;67722;50.204;8.570;2023-05-07T06:53:44;2.30;;;1.35;;
78426;SDS011;67722;50.204;8.570;2023-05-07T06:56:09;1.20;;;1.10;;
78426;SDS011;67722;50.204;8.570;2023-05-07T06:58:35;3.43;;;1.30;;
78426;SDS011;67722;50.204;8.570;2023-05-07T07:01:00;3.03;;;1.63;;
78426;SDS011;67722;50.204;8.570;2023-05-07T07:03:25;3.75;;;1.38;;
78426;SDS011;67722;50.204;8.570;2023-05-07T07:05:51;2.05;;;1.85;;
78426;SDS011;67722;50.204;8.570;2023-05-07T07:08:18;1.83;;;1.42;;
78426;SDS011;67722;50.204;8.570;2023-05-07T07:10:43;4.00;;;1.50;;
78426;SDS011;67722;50.204;8.570;2023-05-07T07:13:08;3.45;;;1.50;;
78426;SDS011;67722;50.204;8.570;2023-05-07T07:15:34;2.28;;;1.45;;
78426;SDS011;67722;50.204;8.570;2023-05-07T07:17:59;2.97;;;1.42;;
78426;SDS011;67722;50.204;8.570;2023-05-07T07:20:25;1.58;;;1.27;;
78426;SDS011;67722;50.204;8.570;2023-05-07T07:22:50;2.15;;;1.38;;
78426;SDS011;67722;50.204;8.570;2023-05-07T07:25:15;5.88;;;1.80;;
78426;SDS011;67722;50.204;8.570;2023-05-07T07:27:41;2.22;;;1.50;;
78426;SDS011;67722;50.204;8.570;2023-05-07T07:30:06;2.45;;;1.60;;
78426;SDS011;67722;50.204;8.570;2023-05-07T07:32:32;2.13;;;1.48;;
78426;SDS011;67722;50.204;8.570;2023-05-07T07:34:58;1.80;;;1.30;;
78426;SDS011;67722;50.204;8.570;2023-05-07T07:37:23;3.20;;;1.40;;
78426;SDS011;67722;50.204;8.570;2023-05-07T07:39:50;2.22;;;1.40;;
78426;SDS011;67722;50.204;8.570;2023-05-07T07:42:15;2.78;;;1.60;;
78426;SDS011;67722;50.204;8.570;2023-05-07T07:44:41;2.38;;;1.70;;
78426;SDS011;67722;50.204;8.570;2023-05-07T07:47:06;2.30;;;1.73;;
78426;SDS011;67722;50.204;8.570;2023-05-07T07:49:31;2.13;;;1.93;;
78426;SDS011;67722;50.204;8.570;2023-05-07T07:51:57;2.20;;;1.60;;
78426;SDS011;67722;50.204;8.570;2023-05-07T07:54:24;2.50;;;1.90;;
78426;SDS011;67722;50.204;8.570;2023-05-07T07:56:49;2.80;;;1.75;;
78426;SDS011;67722;50.204;8.570;2023-05-07T07:59:15;4.22;;;1.90;;
78426;SDS011;67722;50.204;8.570;2023-05-07T08:01:43;3.63;;;1.80;;
78426;SDS011;67722;50.204;8.570;2023-05-07T08:04:09;4.53;;;2.13;;
78426;SDS011;67722;50.204;8.570;2023-05-07T08:06:34;2.80;;;1.80;;
78426;SDS011;67722;50.204;8.570;2023-05-07T08:08:59;2.85;;;1.90;;
78426;SDS011;67722;50.204;8.570;2023-05-07T08:11:25;2.13;;;1.67;;
78426;SDS011;67722;50.204;8.570;2023-05-07T08:13:50;1.80;;;1.67;;
78426;SDS011;67722;50.204;8.570;2023-05-07T08:16:16;3.10;;;1.83;;
78426;SDS011;67722;50.204;8.570;2023-05-07T08:18:41;2.60;;;1.70;;
78426;SDS011;67722;50.204;8.570;2023-05-07T08:21:06;4.47;;;1.70;;
78426;SDS011;67722;50.204;8.570;2023-05-07T08:23:32;3.33;;;2.20;;
78426;SDS011;67722;50.204;8.570;2023-05-07T08:25:59;2.65;;;1.92;;
78426;SDS011;67722;50.204;8.570;2023-05-07T08:28:25;3.25;;;2.10;;
78426;SDS011;67722;50.204;8.570;2023-05-07T08:30:50;2.72;;;2.03;;
78426;SDS011;67722;50.204;8.570;2023-05-07T08:33:16;2.57;;;2.03;;
78426;SDS011;67722;50.204;8.570;2023-05-07T08:35:41;2.88;;;2.58;;
78426;SDS011;67722;50.204;8.570;2023-05-07T08:38:07;2.38;;;2.00;;
78426;SDS011;67722;50.204;8.570;2023-05-07T08:40:35;2.65;;;2.05;;
78426;SDS011;67722;50.204;8.570;2023-05-07T08:43:02;2.70;;;2.30;;
78426;SDS011;67722;50.204;8.570;2023-05-07T08:45:28;5.32;;;2.03;;
78426;SDS011;67722;50.204;8.570;2023-05-07T08:47:58;4.25;;;2.47;;
78426;SDS011;67722;50.204;8.570;2023-05-07T08:50:24;3.78;;;2.40;;
78426;SDS011;67722;50.204;8.570;2023-05-07T08:52:49;2.88;;;2.30;;
78426;SDS011;67722;50.204;8.570;2023-05-07T08:55:15;2.67;;;2.47;;
78426;SDS011;67722;50.204;8.570;2023-05-07T08:57:40;3.28;;;2.70;;
78426;SDS011;67722;50.204;8.570;2023-05-07T09:00:06;3.30;;;2.47;;
78426;SDS011;67722;50.204;8.570;2023-05-07T09:02:32;3.35;;;2.40;;
78426;SDS011;67722;50.204;8.570;2023-05-07T09:04:58;2.95;;;2.60;;
78426;SDS011;67722;50.204;8.570;2023-05-07T09:07:23;3.75;;;2.60;;
78426;SDS011;67722;50.204;8.570;2023-05-07T09:09:50;4.38;;;3.17;;
78426;SDS011;67722;50.204;8.570;2023-05-07T09:12:17;2.92;;;2.53;;
78426;SDS011;67722;50.204;8.570;2023-05-07T09:14:42;5.32;;;2.90;;
78426;SDS011;67722;50.204;8.570;2023-05-07T09:17:08;4.33;;;3.07;;
78426;SDS011;67722;50.204;8.570;2023-05-07T09:19:33;4.57;;;2.40;;
78426;SDS011;67722;50.204;8.570;2023-05-07T09:22:02;3.80;;;3.00;;
78426;SDS011;67722;50.204;8.570;2023-05-07T09:24:28;4.50;;;2.70;;
78426;SDS011;67722;50.204;8.570;2023-05-07T09:26:58;5.13;;;3.17;;
78426;SDS011;67722;50.204;8.570;2023-05-07T09:29:25;3.50;;;2.80;;
78426;SDS011;67722;50.204;8.570;2023-05-07T09:31:51;4.88;;;3.40;;
78426;SDS011;67722;50.204;8.570;2023-05-07T09:34:16;2.83;;;2.53;;
78426;SDS011;67722;50.204;8.570;2023-05-07T09:36:41;4.77;;;2.70;;
78426;SDS011;67722;50.204;8.570;2023-05-07T09:39:07;3.05;;;2.60;;
78426;SDS011;67722;50.204;8.570;2023-05-07T09:41:32;4.57;;;3.22;;
78426;SDS011;67722;50.204;8.570;2023-05-07T09:43:58;4.00;;;2.45;;
78426;SDS011;67722;50.204;8.570;2023-05-07T09:46:29;3.80;;;2.90;;
78426;SDS011;67722;50.204;8.570;2023-05-07T09:48:59;3.25;;;2.80;;
78426;SDS011;67722;50.204;8.570;2023-05-07T09:51:30;3.80;;;2.65;;
78426;SDS011;67722;50.204;8.570;2023-05-07T09:53:59;3.53;;;2.47;;
78426;SDS011;67722;50.204;8.570;2023-05-07T09:56:27;2.70;;;2.20;;
78426;SDS011;67722;50.204;8.570;2023-05-07T09:58:57;3.33;;;2.63;;
78426;SDS011;67722;50.204;8.570;2023-05-07T10:01:25;2.65;;;2.45;;
78426;SDS011;67722;50.204;8.570;2023-05-07T10:03:50;4.07;;;2.47;;
78426;SDS011;67722;50.204;8.570;2023-05-07T10:06:16;3.00;;;2.28;;
78426;SDS011;67722;50.204;8.570;2023-05-07T10:08:42;3.90;;;3.13;;
78426;SDS011;67722;50.204;8.570;2023-05-07T10:11:08;5.78;;;3.03;;
78426;SDS011;67722;50.204;8.570;2023-05-07T10:13:34;4.25;;;2.80;;
78426;SDS011;67722;50.204;8.570;2023-05-07T10:16:01;2.63;;;2.17;;
78426;SDS011;67722;50.204;8.570;2023-05-07T10:18:30;2.60;;;2.08;;
78426;SDS011;67722;50.204;8.570;2023-05-07T10:20:59;3.53;;;2.70;;
78426;SDS011;67722;50.204;8.570;2023-05-07T10:23:49;3.40;;;2.65;;
78426;SDS011;67722;50.204;8.570;2023-05-07T10:26:15;2.85;;;2.05;;
78426;SDS011;67722;50.204;8.570;2023-05-07T10:28:43;2.75;;;2.40;;
78426;SDS011;67722;50.204;8.570;2023-05-07T10:31:31;3.03;;;2.20;;
78426;SDS011;67722;50.204;8.570;2023-05-07T10:34:21;2.92;;;2.45;;
78426;SDS011;67722;50.204;8.570;2023-05-07T10:36:49;3.92;;;2.72;;
78426;SDS011;67722;50.204;8.570;2023-05-07T10:39:15;3.30;;;2.13;;
78426;SDS011;67722;50.204;8.570;2023-05-07T10:41:40;3.72;;;2.55;;
78426;SDS011;67722;50.204;8.570;2023-05-07T10:44:06;2.60;;;2.40;;
78426;SDS011;67722;50.204;8.570;2023-05-07T10:46:31;3.25;;;2.63;;
78426;SDS011;67722;50.204;8.570;2023-05-07T10:51:29;4.80;;;2.78;;
78426;SDS011;67722;50.204;8.570;2023-05-07T10:56:41;2.42;;;1.98;;
78426;SDS011;67722;50.204;8.570;2023-05-07T11:04:21;2.85;;;2.35;;
78426;SDS011;67722;50.204;8.570;2023-05-07T11:07:38;2.70;;;2.20;;
78426;SDS011;67722;50.204;8.570;2023-05-07T11:15:12;3.53;;;2.50;;
78426;SDS011;67722;50.204;8.570;2023-05-07T11:17:56;3.20;;;2.40;;
78426;SDS011;67722;50.204;8.570;2023-05-07T11:26:05;2.20;;;2.00;;
78426;SDS011;67722;50.204;8.570;2023-05-07T11:28:39;2.80;;;2.30;;
78426;SDS011;67722;50.204;8.570;2023-05-07T11:31:05;2.35;;;2.15;;
78426;SDS011;67722;50.204;8.570;2023-05-07T11:33:30;3.65;;;2.47;;
78426;SDS011;67722;50.204;8.570;2023-05-07T11:35:57;2.30;;;2.10;;
78426;SDS011;67722;50.204;8.570;2023-05-07T11:38:23;2.40;;;2.10;;
78426;SDS011;67722;50.204;8.570;2023-05-07T11:40:49;4.30;;;2.13;;
78426;SDS011;67722;50.204;8.570;2023-05-07T11:43:14;2.80;;;2.20;;
78426;SDS011;67722;50.204;8.570;2023-05-07T11:45:40;3.58;;;2.47;;
78426;SDS011;67722;50.204;8.570;2023-05-07T11:48:05;3.55;;;2.08;;
78426;SDS011;67722;50.204;8.570;2023-05-07T11:50:30;3.10;;;1.90;;
78426;SDS011;67722;50.204;8.570;2023-05-07T11:52:56;3.00;;;1.60;;
78426;SDS011;67722;50.204;8.570;2023-05-07T11:55:21;3.05;;;1.58;;
78426;SDS011;67722;50.204;8.570;2023-05-07T11:57:49;2.40;;;1.63;;
78426;SDS011;67722;50.204;8.570;2023-05-07T12:00:15;2.00;;;1.70;;
78426;SDS011;67722;50.204;8.570;2023-05-07T12:02:41;3.25;;;2.00;;
78426;SDS011;67722;50.204;8.570;2023-05-07T12:05:07;3.45;;;1.75;;
78426;SDS011;67722;50.204;8.570;2023-05-07T12:07:33;2.00;;;1.60;;
78426;SDS011;67722;50.204;8.570;2023-05-07T12:09:59;1.95;;;1.48;;
78426;SDS011;67722;50.204;8.570;2023-05-07T12:12:24;3.13;;;2.13;;
78426;SDS011;67722;50.204;8.570;2023-05-07T12:14:51;2.80;;;1.67;;
78426;SDS011;67722;50.204;8.570;2023-05-07T12:17:17;2.40;;;1.43;;
78426;SDS011;67722;50.204;8.570;2023-05-07T12:19:43;2.77;;;1.67;;
78426;SDS011;67722;50.204;8.570;2023-05-07T12:22:08;2.83;;;1.50;;
78426;SDS011;67722;50.204;8.570;2023-05-07T12:24:44;2.35;;;1.55;;
78426;SDS011;67722;50.204;8.570;2023-05-07T12:27:09;2.17;;;1.70;;
78426;SDS011;67722;50.204;8.570;2023-05-07T12:29:35;2.13;;;1.70;;
78426;SDS011;67722;50.204;8.570;2023-05-07T12:32:00;2.30;;;1.83;;
78426;SDS011;67722;50.204;8.570;2023-05-07T12:34:25;4.20;;;1.48;;
78426;SDS011;67722;50.204;8.570;2023-05-07T12:36:51;2.50;;;1.53;;
78426;SDS011;67722;50.204;8.570;2023-05-07T12:39:16;3.63;;;2.33;;
78426;SDS011;67722;50.204;8.570;2023-05-07T12:41:54;3.65;;;1.92;;
78426;SDS011;67722;50.204;8.570;2023-05-07T12:44:29;2.92;;;2.47;;
78426;SDS011;67722;50.204;8.570;2023-05-07T12:47:01;1.73;;;1.52;;
78426;SDS011;67722;50.204;8.570;2023-05-07T12:49:26;2.10;;;1.70;;
78426;SDS011;67722;50.204;8.570;2023-05-07T12:51:53;2.90;;;2.10;;
78426;SDS011;67722;50.204;8.570;2023-05-07T12:54:35;2.78;;;2.22;;
78426;SDS011;67722;50.204;8.570;2023-05-07T12:57:03;4.15;;;2.17;;
78426;SDS011;67722;50.204;8.570;2023-05-07T12:59:33;2.90;;;2.22;;
78426;SDS011;67722;50.204;8.570;2023-05-07T13:02:02;2.33;;;2.13;;
78426;SDS011;67722;50.204;8.570;2023-05-07T13:04:27;3.22;;;1.73;;
78426;SDS011;67722;50.204;8.570;2023-05-07T13:06:52;2.87;;;2.17;;
78426;SDS011;67722;50.204;8.570;2023-05-07T13:09:18;3.30;;;2.10;;
78426;SDS011;67722;50.204;8.570;2023-05-07T13:11:43;3.13;;;2.10;;
78426;SDS011;67722;50.204;8.570;2023-05-07T13:14:08;4.73;;;2.20;;
78426;SDS011;67722;50.204;8.570;2023-05-07T13:16:34;3.15;;;2.42;;
78426;SDS011;67722;50.204;8.570;2023-05-07T13:18:59;2.23;;;1.87;;
78426;SDS011;67722;50.204;8.570;2023-05-07T13:21:24;3.35;;;2.75;;
78426;SDS011;67722;50.204;8.570;2023-05-07T13:23:51;2.22;;;1.60;;
78426;SDS011;67722;50.204;8.570;2023-05-07T13:26:17;2.10;;;1.80;;
78426;SDS011;67722;50.204;8.570;2023-05-07T13:28:42;2.27;;;2.00;;
78426;SDS011;67722;50.204;8.570;2023-05-07T13:31:08;3.47;;;1.88;;
78426;SDS011;67722;50.204;8.570;2023-05-07T13:33:33;3.10;;;1.95;;
78426;SDS011;67722;50.204;8.570;2023-05-07T13:35:59;3.53;;;2.25;;
78426;SDS011;67722;50.204;8.570;2023-05-07T13:38:25;3.42;;;2.15;;
78426;SDS011;67722;50.204;8.570;2023-05-07T13:40:51;3.75;;;1.90;;
78426;SDS011;67722;50.204;8.570;2023-05-07T13:43:16;4.75;;;2.53;;
78426;SDS011;67722;50.204;8.570;2023-05-07T13:45:43;4.50;;;2.20;;
78426;SDS011;67722;50.204;8.570;2023-05-07T13:48:09;3.40;;;2.28;;
78426;SDS011;67722;50.204;8.570;2023-05-07T13:50:34;3.47;;;2.00;;
78426;SDS011;67722;50.204;8.570;2023-05-07T13:53:00;3.45;;;2.00;;
78426;SDS011;67722;50.204;8.570;2023-05-07T13:55:25;2.50;;;1.73;;
78426;SDS011;67722;50.204;8.570;2023-05-07T13:57:54;2.75;;;1.80;;
78426;SDS011;67722;50.204;8.570;2023-05-07T14:00:24;3.65;;;2.00;;
78426;SDS011;67722;50.204;8.570;2023-05-07T14:02:50;2.42;;;1.90;;
78426;SDS011;67722;50.204;8.570;2023-05-07T14:05:15;3.80;;;1.90;;
78426;SDS011;67722;50.204;8.570;2023-05-07T14:07:40;2.23;;;2.03;;
78426;SDS011;67722;50.204;8.570;2023-05-07T14:10:06;2.80;;;1.83;;
78426;SDS011;67722;50.204;8.570;2023-05-07T14:12:32;2.38;;;1.83;;
78426;SDS011;67722;50.204;8.570;2023-05-07T14:14:58;2.10;;;1.90;;
78426;SDS011;67722;50.204;8.570;2023-05-07T14:17:23;2.50;;;1.70;;
78426;SDS011;67722;50.204;8.570;2023-05-07T14:19:51;2.47;;;1.52;;
78426;SDS011;67722;50.204;8.570;2023-05-07T14:22:18;2.90;;;2.03;;
78426;SDS011;67722;50.204;8.570;2023-05-07T14:24:45;2.53;;;1.70;;
78426;SDS011;67722;50.204;8.570;2023-05-07T14:27:10;2.77;;;2.03;;
78426;SDS011;67722;50.204;8.570;2023-05-07T14:29:36;2.85;;;1.70;;
78426;SDS011;67722;50.204;8.570;2023-05-07T14:32:01;2.25;;;1.90;;
78426;SDS011;67722;50.204;8.570;2023-05-07T14:34:28;3.40;;;1.88;;
78426;SDS011;67722;50.204;8.570;2023-05-07T14:36:53;2.47;;;1.52;;
78426;SDS011;67722;50.204;8.570;2023-05-07T14:39:19;2.20;;;1.85;;
78426;SDS011;67722;50.204;8.570;2023-05-07T14:41:44;2.22;;;2.00;;
78426;SDS011;67722;50.204;8.570;2023-05-07T14:44:09;3.27;;;1.97;;
78426;SDS011;67722;50.204;8.570;2023-05-07T14:46:35;2.03;;;1.70;;
78426;SDS011;67722;50.204;8.570;2023-05-07T14:49:01;5.40;;;1.90;;
78426;SDS011;67722;50.204;8.570;2023-05-07T14:51:27;3.95;;;2.03;;
78426;SDS011;67722;50.204;8.570;2023-05-07T14:53:53;2.10;;;1.60;;
78426;SDS011;67722;50.204;8.570;2023-05-07T14:56:19;2.38;;;1.60;;
78426;SDS011;67722;50.204;8.570;2023-05-07T14:58:46;2.70;;;1.80;;
78426;SDS011;67722;50.204;8.570;2023-05-07T15:01:11;2.70;;;1.83;;
78426;SDS011;67722;50.204;8.570;2023-05-07T15:03:37;2.47;;;1.67;;